This is the latest recevied weather packets stored in our database for station/object CE4ERM-13. If no packets are shown the sender has not sent any weather packets the latest 10 day(s).
| Time | Temp. | Humidity | Pressure | Rain* | Wind** | Luminosity | Snow |
|---|---|---|---|---|---|---|---|
| 1777337055 | 21.67° C | 38% | 1021.5 hPa | - | - | - | - |
| 1777336954 | 22.22° C | 33% | 1020.4 hPa | - | - | - | - |
| 1777336354 | 21.67° C | 35% | 1020.2 hPa | - | - | - | - |
| 1777335754 | 21.11° C | 36% | 1020.3 hPa | - | - | - | - |
| 1777335468 | 22.22° C | 39% | 1020.1 hPa | - | - | - | - |
| 1777335154 | 22.22° C | 34% | 1020.1 hPa | - | - | - | - |
| 1777334868 | 22.22° C | 38% | 1019.7 hPa | - | - | - | - |
| 1777334267 | 22.22° C | 37% | 1020.7 hPa | - | - | - | - |
| 1777333954 | 22.22° C | 34% | 1020.6 hPa | - | - | - | - |
| 1777333666 | 21.67° C | 39% | 1018 hPa | - | - | - | - |
| 1777333354 | 22.78° C | 34% | 1019.9 hPa | - | - | - | - |
| 1777332753 | 22.78° C | 34% | 1018.9 hPa | - | - | - | - |
| 1777332466 | 22.22° C | 38% | 1019.5 hPa | - | - | - | - |
| 1777332152 | 21.67° C | 36% | 1018.7 hPa | - | - | - | - |
| 1777331552 | 23.33° C | 34% | 1021.1 hPa | - | - | - | - |
| 1777331266 | 22.22° C | 37% | 1017.7 hPa | - | - | - | - |
| 1777330951 | 22.78° C | 34% | 1019.8 hPa | - | - | - | - |
| 1777330352 | 22.78° C | 33% | 1019.3 hPa | - | - | - | - |
| 1777330066 | 22.22° C | 37% | 1019.1 hPa | - | - | - | - |
| 1777329752 | 22.78° C | 33% | 1019.1 hPa | - | - | - | - |
| 1777329465 | 22.78° C | 37% | 1019.4 hPa | - | - | - | - |
| 1777329151 | 22.78° C | 33% | 1018.1 hPa | - | - | - | - |
| 1777328865 | 22.22° C | 36% | 1021.2 hPa | - | - | - | - |
| 1777328551 | 22.78° C | 33% | 1018.5 hPa | - | - | - | - |
| 1777327950 | 21.67° C | 34% | 1018.9 hPa | - | - | - | - |
* Rain since midnight (hover to see other rain measurements)
** Current wind speed in m/s (hover to see current wind gust speed)